sensor_id;sensor_type;location;lat;lon;timestamp;pressure;altitude;pressure_sealevel;temperature;humidity
34205;BME280;20471;49.680;20.074;2023-04-08T00:01:13;97222.42;;;1.43;81.12
34205;BME280;20471;49.680;20.074;2023-04-08T00:03:41;97219.98;;;1.41;81.18
34205;BME280;20471;49.680;20.074;2023-04-08T00:06:09;97218.39;;;1.39;81.12
34205;BME280;20471;49.680;20.074;2023-04-08T00:08:37;97218.45;;;1.37;81.08
34205;BME280;20471;49.680;20.074;2023-04-08T00:11:05;97217.12;;;1.36;81.10
34205;BME280;20471;49.680;20.074;2023-04-08T00:13:33;97221.67;;;1.37;81.11
34205;BME280;20471;49.680;20.074;2023-04-08T00:16:01;97224.61;;;1.35;81.03
34205;BME280;20471;49.680;20.074;2023-04-08T00:18:30;97222.89;;;1.32;80.98
34205;BME280;20471;49.680;20.074;2023-04-08T00:20:58;97223.09;;;1.27;81.01
34205;BME280;20471;49.680;20.074;2023-04-08T00:23:26;97224.15;;;1.23;81.14
34205;BME280;20471;49.680;20.074;2023-04-08T00:25:54;97220.77;;;1.23;81.21
34205;BME280;20471;49.680;20.074;2023-04-08T00:28:23;97220.13;;;1.21;81.07
34205;BME280;20471;49.680;20.074;2023-04-08T00:30:52;97222.36;;;1.20;81.01
34205;BME280;20471;49.680;20.074;2023-04-08T00:33:20;97225.75;;;1.22;81.07
34205;BME280;20471;49.680;20.074;2023-04-08T00:35:50;97228.01;;;1.22;81.00
34205;BME280;20471;49.680;20.074;2023-04-08T00:38:18;97227.64;;;1.19;80.99
34205;BME280;20471;49.680;20.074;2023-04-08T00:40:46;97227.06;;;1.17;81.01
34205;BME280;20471;49.680;20.074;2023-04-08T00:43:15;97232.10;;;1.17;80.93
34205;BME280;20471;49.680;20.074;2023-04-08T00:45:46;97231.54;;;1.12;80.91
34205;BME280;20471;49.680;20.074;2023-04-08T00:48:15;97232.68;;;1.06;81.01
34205;BME280;20471;49.680;20.074;2023-04-08T00:50:43;97232.42;;;1.04;81.06
34205;BME280;20471;49.680;20.074;2023-04-08T00:53:16;97230.86;;;1.04;80.94
34205;BME280;20471;49.680;20.074;2023-04-08T00:55:45;97235.00;;;1.02;80.87
34205;BME280;20471;49.680;20.074;2023-04-08T00:58:13;97238.69;;;0.99;80.83
34205;BME280;20471;49.680;20.074;2023-04-08T01:00:48;97241.60;;;0.96;80.85
34205;BME280;20471;49.680;20.074;2023-04-08T01:08:52;97249.45;;;0.85;80.84
34205;BME280;20471;49.680;20.074;2023-04-08T01:11:21;97251.79;;;0.85;80.81
34205;BME280;20471;49.680;20.074;2023-04-08T01:13:49;97258.42;;;0.79;80.78
34205;BME280;20471;49.680;20.074;2023-04-08T01:16:20;97256.48;;;0.72;80.89
34205;BME280;20471;49.680;20.074;2023-04-08T01:18:49;97254.52;;;0.69;80.91
34205;BME280;20471;49.680;20.074;2023-04-08T01:21:21;97258.59;;;0.67;81.10
34205;BME280;20471;49.680;20.074;2023-04-08T01:23:55;97256.44;;;0.67;81.01
34205;BME280;20471;49.680;20.074;2023-04-08T01:26:26;97257.98;;;0.66;81.01
34205;BME280;20471;49.680;20.074;2023-04-08T01:28:58;97261.10;;;0.66;81.02
34205;BME280;20471;49.680;20.074;2023-04-08T01:31:27;97263.52;;;0.69;80.99
34205;BME280;20471;49.680;20.074;2023-04-08T01:33:56;97266.59;;;0.72;81.00
34205;BME280;20471;49.680;20.074;2023-04-08T01:36:27;97267.98;;;0.76;80.95
34205;BME280;20471;49.680;20.074;2023-04-08T01:38:56;97267.73;;;0.78;81.12
34205;BME280;20471;49.680;20.074;2023-04-08T01:41:24;97269.54;;;0.82;81.09
34205;BME280;20471;49.680;20.074;2023-04-08T01:43:52;97268.80;;;0.84;81.06
34205;BME280;20471;49.680;20.074;2023-04-08T01:46:21;97267.66;;;0.86;81.04
34205;BME280;20471;49.680;20.074;2023-04-08T01:48:50;97269.15;;;0.89;81.04
34205;BME280;20471;49.680;20.074;2023-04-08T01:51:19;97270.11;;;0.91;81.03
34205;BME280;20471;49.680;20.074;2023-04-08T01:53:49;97270.02;;;0.92;81.01
34205;BME280;20471;49.680;20.074;2023-04-08T01:56:21;97270.95;;;0.92;81.07
34205;BME280;20471;49.680;20.074;2023-04-08T01:58:51;97266.85;;;0.90;80.97
34205;BME280;20471;49.680;20.074;2023-04-08T02:01:21;97269.94;;;0.88;81.00
34205;BME280;20471;49.680;20.074;2023-04-08T02:03:52;97274.61;;;0.87;81.06
34205;BME280;20471;49.680;20.074;2023-04-08T02:06:25;97279.26;;;0.85;80.92
34205;BME280;20471;49.680;20.074;2023-04-08T02:08:55;97282.73;;;0.82;80.93
34205;BME280;20471;49.680;20.074;2023-04-08T02:11:23;97285.94;;;0.80;80.89
34205;BME280;20471;49.680;20.074;2023-04-08T02:13:52;97285.89;;;0.79;80.91
34205;BME280;20471;49.680;20.074;2023-04-08T02:19:10;97288.30;;;0.74;80.82
34205;BME280;20471;49.680;20.074;2023-04-08T02:21:48;97285.80;;;0.73;80.91
34205;BME280;20471;49.680;20.074;2023-04-08T02:24:19;97287.89;;;0.72;80.88
34205;BME280;20471;49.680;20.074;2023-04-08T02:26:49;97290.95;;;0.69;80.80
34205;BME280;20471;49.680;20.074;2023-04-08T02:29:18;97292.73;;;0.64;80.67
34205;BME280;20471;49.680;20.074;2023-04-08T02:31:46;97292.38;;;0.55;80.62
34205;BME280;20471;49.680;20.074;2023-04-08T02:34:16;97292.41;;;0.49;80.67
34205;BME280;20471;49.680;20.074;2023-04-08T02:36:45;97290.48;;;0.46;80.76
34205;BME280;20471;49.680;20.074;2023-04-08T02:39:13;97293.81;;;0.44;80.77
34205;BME280;20471;49.680;20.074;2023-04-08T02:41:41;97294.13;;;0.41;80.79
34205;BME280;20471;49.680;20.074;2023-04-08T02:44:09;97294.41;;;0.40;80.80
34205;BME280;20471;49.680;20.074;2023-04-08T02:46:37;97297.02;;;0.41;80.90
34205;BME280;20471;49.680;20.074;2023-04-08T02:49:05;97300.92;;;0.42;80.87
34205;BME280;20471;49.680;20.074;2023-04-08T02:51:33;97298.61;;;0.41;80.83
34205;BME280;20471;49.680;20.074;2023-04-08T02:54:01;97300.66;;;0.38;80.70
34205;BME280;20471;49.680;20.074;2023-04-08T02:56:29;97302.27;;;0.34;80.67
34205;BME280;20471;49.680;20.074;2023-04-08T02:58:58;97304.80;;;0.29;80.60
34205;BME280;20471;49.680;20.074;2023-04-08T03:01:26;97306.48;;;0.28;80.72
34205;BME280;20471;49.680;20.074;2023-04-08T03:03:54;97307.83;;;0.29;80.86
34205;BME280;20471;49.680;20.074;2023-04-08T03:06:22;97306.27;;;0.31;80.75
34205;BME280;20471;49.680;20.074;2023-04-08T03:08:50;97305.91;;;0.31;80.70
34205;BME280;20471;49.680;20.074;2023-04-08T03:11:18;97311.02;;;0.27;80.61
34205;BME280;20471;49.680;20.074;2023-04-08T03:13:47;97314.91;;;0.22;80.54
34205;BME280;20471;49.680;20.074;2023-04-08T03:16:15;97319.65;;;0.21;80.53
34205;BME280;20471;49.680;20.074;2023-04-08T03:18:43;97319.83;;;0.19;80.56
34205;BME280;20471;49.680;20.074;2023-04-08T03:21:11;97323.29;;;0.18;80.50
34205;BME280;20471;49.680;20.074;2023-04-08T03:23:39;97322.86;;;0.15;80.50
34205;BME280;20471;49.680;20.074;2023-04-08T03:26:07;97327.51;;;0.13;80.53
34205;BME280;20471;49.680;20.074;2023-04-08T03:28:35;97328.77;;;0.11;80.59
34205;BME280;20471;49.680;20.074;2023-04-08T03:31:03;97329.39;;;0.04;80.61
34205;BME280;20471;49.680;20.074;2023-04-08T03:33:31;97333.73;;;-0.00;80.69
34205;BME280;20471;49.680;20.074;2023-04-08T03:35:59;97336.15;;;0.00;80.84
34205;BME280;20471;49.680;20.074;2023-04-08T03:38:28;97340.31;;;0.01;80.89
34205;BME280;20471;49.680;20.074;2023-04-08T03:40:56;97339.91;;;0.02;80.88
34205;BME280;20471;49.680;20.074;2023-04-08T03:43:24;97340.51;;;-0.03;80.71
34205;BME280;20471;49.680;20.074;2023-04-08T03:45:54;97343.10;;;-0.09;80.69
34205;BME280;20471;49.680;20.074;2023-04-08T03:48:22;97350.90;;;-0.17;80.70
34205;BME280;20471;49.680;20.074;2023-04-08T03:50:50;97356.40;;;-0.19;80.80
34205;BME280;20471;49.680;20.074;2023-04-08T03:53:18;97357.67;;;-0.23;80.88
34205;BME280;20471;49.680;20.074;2023-04-08T03:55:48;97360.49;;;-0.23;81.02
34205;BME280;20471;49.680;20.074;2023-04-08T03:58:17;97364.05;;;-0.25;80.92
34205;BME280;20471;49.680;20.074;2023-04-08T04:00:45;97366.84;;;-0.28;80.92
34205;BME280;20471;49.680;20.074;2023-04-08T04:03:13;97372.39;;;-0.33;80.92
34205;BME280;20471;49.680;20.074;2023-04-08T04:05:41;97380.14;;;-0.36;80.83
34205;BME280;20471;49.680;20.074;2023-04-08T04:08:09;97381.08;;;-0.41;80.93
34205;BME280;20471;49.680;20.074;2023-04-08T04:10:37;97384.35;;;-0.40;81.07
34205;BME280;20471;49.680;20.074;2023-04-08T04:13:05;97389.77;;;-0.39;81.00
34205;BME280;20471;49.680;20.074;2023-04-08T04:15:37;97393.11;;;-0.39;81.00
34205;BME280;20471;49.680;20.074;2023-04-08T04:18:06;97389.80;;;-0.41;80.94
34205;BME280;20471;49.680;20.074;2023-04-08T04:20:34;97390.21;;;-0.42;81.01
34205;BME280;20471;49.680;20.074;2023-04-08T04:23:03;97390.66;;;-0.41;81.16
34205;BME280;20471;49.680;20.074;2023-04-08T04:25:31;97389.29;;;-0.40;81.04
34205;BME280;20471;49.680;20.074;2023-04-08T04:28:00;97397.16;;;-0.42;81.02
34205;BME280;20471;49.680;20.074;2023-04-08T04:30:28;97398.61;;;-0.48;80.96
34205;BME280;20471;49.680;20.074;2023-04-08T04:32:56;97401.97;;;-0.48;81.10
34205;BME280;20471;49.680;20.074;2023-04-08T04:35:24;97405.02;;;-0.49;81.03
34205;BME280;20471;49.680;20.074;2023-04-08T04:37:53;97408.86;;;-0.54;81.07
34205;BME280;20471;49.680;20.074;2023-04-08T04:40:21;97413.59;;;-0.55;81.09
34205;BME280;20471;49.680;20.074;2023-04-08T04:42:49;97411.39;;;-0.56;81.05
34205;BME280;20471;49.680;20.074;2023-04-08T04:45:17;97414.48;;;-0.56;81.11
34205;BME280;20471;49.680;20.074;2023-04-08T04:47:45;97419.79;;;-0.55;81.05
34205;BME280;20471;49.680;20.074;2023-04-08T04:50:13;97427.27;;;-0.54;81.12
34205;BME280;20471;49.680;20.074;2023-04-08T04:52:41;97429.31;;;-0.53;81.10
34205;BME280;20471;49.680;20.074;2023-04-08T04:55:09;97429.16;;;-0.54;81.10
34205;BME280;20471;49.680;20.074;2023-04-08T04:57:37;97431.23;;;-0.53;81.11
34205;BME280;20471;49.680;20.074;2023-04-08T05:00:06;97425.54;;;-0.57;80.95
34205;BME280;20471;49.680;20.074;2023-04-08T05:02:35;97428.43;;;-0.63;81.03
34205;BME280;20471;49.680;20.074;2023-04-08T05:05:03;97430.22;;;-0.65;81.13
34205;BME280;20471;49.680;20.074;2023-04-08T05:07:35;97429.08;;;-0.64;81.15
34205;BME280;20471;49.680;20.074;2023-04-08T05:10:04;97431.98;;;-0.63;81.24
34205;BME280;20471;49.680;20.074;2023-04-08T05:12:32;97431.39;;;-0.62;81.33
34205;BME280;20471;49.680;20.074;2023-04-08T05:15:01;97429.37;;;-0.58;81.40
34205;BME280;20471;49.680;20.074;2023-04-08T05:17:29;97429.01;;;-0.54;81.44
34205;BME280;20471;49.680;20.074;2023-04-08T05:19:57;97434.28;;;-0.52;81.38
34205;BME280;20471;49.680;20.074;2023-04-08T05:22:25;97440.56;;;-0.51;81.40
34205;BME280;20471;49.680;20.074;2023-04-08T05:24:53;97447.09;;;-0.49;81.38
34205;BME280;20471;49.680;20.074;2023-04-08T05:27:21;97449.59;;;-0.47;81.38
34205;BME280;20471;49.680;20.074;2023-04-08T05:29:50;97449.92;;;-0.43;81.34
34205;BME280;20471;49.680;20.074;2023-04-08T05:32:18;97441.09;;;-0.38;81.48
34205;BME280;20471;49.680;20.074;2023-04-08T05:34:46;97438.54;;;-0.31;81.55
34205;BME280;20471;49.680;20.074;2023-04-08T05:37:14;97441.02;;;-0.25;81.51
34205;BME280;20471;49.680;20.074;2023-04-08T05:39:42;97442.00;;;-0.21;81.54
34205;BME280;20471;49.680;20.074;2023-04-08T05:42:10;97444.14;;;-0.17;81.45
34205;BME280;20471;49.680;20.074;2023-04-08T05:44:39;97445.91;;;-0.15;81.51
34205;BME280;20471;49.680;20.074;2023-04-08T05:47:09;97447.70;;;-0.12;81.57
34205;BME280;20471;49.680;20.074;2023-04-08T05:49:38;97454.51;;;-0.07;81.69
34205;BME280;20471;49.680;20.074;2023-04-08T05:52:06;97457.38;;;-0.02;81.73
34205;BME280;20471;49.680;20.074;2023-04-08T05:54:34;97455.80;;;0.03;81.66
34205;BME280;20471;49.680;20.074;2023-04-08T05:57:02;97456.59;;;0.08;81.69
34205;BME280;20471;49.680;20.074;2023-04-08T05:59:31;97463.35;;;0.15;81.65
34205;BME280;20471;49.680;20.074;2023-04-08T06:01:59;97466.36;;;0.21;81.87
34205;BME280;20471;49.680;20.074;2023-04-08T06:04:27;97465.83;;;0.24;81.86
34205;BME280;20471;49.680;20.074;2023-04-08T06:06:55;97469.64;;;0.31;81.91
34205;BME280;20471;49.680;20.074;2023-04-08T06:09:25;97470.73;;;0.40;82.03
34205;BME280;20471;49.680;20.074;2023-04-08T06:11:53;97476.89;;;0.48;81.92
34205;BME280;20471;49.680;20.074;2023-04-08T06:14:22;97479.76;;;0.57;81.95
34205;BME280;20471;49.680;20.074;2023-04-08T06:16:50;97480.77;;;0.66;81.95
34205;BME280;20471;49.680;20.074;2023-04-08T06:19:20;97484.27;;;0.74;81.99
34205;BME280;20471;49.680;20.074;2023-04-08T06:21:48;97483.55;;;0.81;82.10
34205;BME280;20471;49.680;20.074;2023-04-08T06:24:17;97482.55;;;0.88;82.06
34205;BME280;20471;49.680;20.074;2023-04-08T06:26:45;97484.84;;;0.93;82.08
34205;BME280;20471;49.680;20.074;2023-04-08T06:29:13;97486.30;;;0.95;82.11
34205;BME280;20471;49.680;20.074;2023-04-08T06:31:41;97487.86;;;0.97;82.27
34205;BME280;20471;49.680;20.074;2023-04-08T06:34:09;97491.74;;;1.02;82.24
34205;BME280;20471;49.680;20.074;2023-04-08T06:36:38;97491.34;;;1.08;82.31
34205;BME280;20471;49.680;20.074;2023-04-08T06:39:06;97496.44;;;1.16;82.33
34205;BME280;20471;49.680;20.074;2023-04-08T06:41:34;97497.73;;;1.25;82.25
34205;BME280;20471;49.680;20.074;2023-04-08T06:44:02;97495.94;;;1.33;82.03
34205;BME280;20471;49.680;20.074;2023-04-08T06:46:30;97496.52;;;1.42;81.94
34205;BME280;20471;49.680;20.074;2023-04-08T06:48:58;97501.70;;;1.50;81.82
34205;BME280;20471;49.680;20.074;2023-04-08T06:51:26;97504.22;;;1.60;81.75
34205;BME280;20471;49.680;20.074;2023-04-08T06:53:54;97502.44;;;1.71;81.66
34205;BME280;20471;49.680;20.074;2023-04-08T06:56:22;97504.54;;;1.80;81.38
34205;BME280;20471;49.680;20.074;2023-04-08T06:58:51;97502.89;;;1.90;81.00
34205;BME280;20471;49.680;20.074;2023-04-08T07:01:19;97504.05;;;1.99;80.78
34205;BME280;20471;49.680;20.074;2023-04-08T07:03:48;97506.45;;;2.08;80.69
34205;BME280;20471;49.680;20.074;2023-04-08T07:06:16;97507.81;;;2.18;80.58
34205;BME280;20471;49.680;20.074;2023-04-08T07:08:44;97503.16;;;2.28;80.63
34205;BME280;20471;49.680;20.074;2023-04-08T07:11:12;97499.33;;;2.39;80.53
34205;BME280;20471;49.680;20.074;2023-04-08T07:13:41;97498.04;;;2.52;80.40
34205;BME280;20471;49.680;20.074;2023-04-08T07:16:10;97496.71;;;2.63;80.23
34205;BME280;20471;49.680;20.074;2023-04-08T07:18:38;97494.03;;;2.74;80.01
34205;BME280;20471;49.680;20.074;2023-04-08T07:21:07;97488.67;;;2.83;79.82
34205;BME280;20471;49.680;20.074;2023-04-08T07:23:35;97489.71;;;2.94;79.41
34205;BME280;20471;49.680;20.074;2023-04-08T07:26:03;97493.20;;;3.03;79.15
34205;BME280;20471;49.680;20.074;2023-04-08T07:28:31;97497.20;;;3.14;78.96
34205;BME280;20471;49.680;20.074;2023-04-08T07:31:16;97510.11;;;3.23;78.80
34205;BME280;20471;49.680;20.074;2023-04-08T07:33:45;97518.73;;;3.37;79.12
34205;BME280;20471;49.680;20.074;2023-04-08T07:36:13;97517.10;;;3.57;79.20
34205;BME280;20471;49.680;20.074;2023-04-08T07:38:43;97517.02;;;3.77;78.51
34205;BME280;20471;49.680;20.074;2023-04-08T07:41:12;97514.82;;;3.86;77.90
34205;BME280;20471;49.680;20.074;2023-04-08T07:43:41;97513.86;;;3.95;78.04
34205;BME280;20471;49.680;20.074;2023-04-08T07:46:09;97514.58;;;4.17;78.22
34205;BME280;20471;49.680;20.074;2023-04-08T07:48:37;97511.35;;;4.61;78.13
34205;BME280;20471;49.680;20.074;2023-04-08T07:51:07;97508.83;;;5.11;77.68
34205;BME280;20471;49.680;20.074;2023-04-08T07:53:36;97511.06;;;5.53;76.57
34205;BME280;20471;49.680;20.074;2023-04-08T07:56:10;97517.17;;;5.91;76.04
34205;BME280;20471;49.680;20.074;2023-04-08T07:58:39;97517.24;;;6.39;75.48
34205;BME280;20471;49.680;20.074;2023-04-08T08:01:21;97519.81;;;6.82;74.80
34205;BME280;20471;49.680;20.074;2023-04-08T08:03:50;97517.32;;;7.27;74.44
34205;BME280;20471;49.680;20.074;2023-04-08T08:06:18;97513.98;;;7.68;73.91
34205;BME280;20471;49.680;20.074;2023-04-08T08:08:47;97507.73;;;8.09;73.18
34205;BME280;20471;49.680;20.074;2023-04-08T08:11:15;97504.95;;;8.47;72.32
34205;BME280;20471;49.680;20.074;2023-04-08T08:13:43;97503.23;;;8.86;71.68
34205;BME280;20471;49.680;20.074;2023-04-08T08:16:11;97505.13;;;9.18;71.08
34205;BME280;20471;49.680;20.074;2023-04-08T08:18:40;97509.45;;;9.51;70.31
34205;BME280;20471;49.680;20.074;2023-04-08T08:21:08;97515.73;;;9.72;69.78
34205;BME280;20471;49.680;20.074;2023-04-08T08:23:36;97526.11;;;9.88;69.67
34205;BME280;20471;49.680;20.074;2023-04-08T08:26:07;97528.48;;;9.93;68.99
34205;BME280;20471;49.680;20.074;2023-04-08T08:28:37;97531.22;;;9.89;67.91
34205;BME280;20471;49.680;20.074;2023-04-08T08:31:05;97526.08;;;9.88;67.90
34205;BME280;20471;49.680;20.074;2023-04-08T08:33:34;97524.98;;;9.82;67.32
34205;BME280;20471;49.680;20.074;2023-04-08T08:36:02;97524.03;;;9.68;66.91
34205;BME280;20471;49.680;20.074;2023-04-08T08:38:32;97523.63;;;9.59;66.96
34205;BME280;20471;49.680;20.074;2023-04-08T08:41:00;97524.05;;;9.60;67.03
34205;BME280;20471;49.680;20.074;2023-04-08T08:43:29;97522.80;;;9.61;66.15
34205;BME280;20471;49.680;20.074;2023-04-08T08:45:59;97525.34;;;9.64;66.82
34205;BME280;20471;49.680;20.074;2023-04-08T08:48:27;97527.70;;;9.81;66.98
34205;BME280;20471;49.680;20.074;2023-04-08T08:50:56;97530.18;;;9.87;66.49
34205;BME280;20471;49.680;20.074;2023-04-08T08:53:30;97529.60;;;9.75;65.91
34205;BME280;20471;49.680;20.074;2023-04-08T08:55:59;97532.63;;;9.60;65.74
34205;BME280;20471;49.680;20.074;2023-04-08T08:58:27;97531.86;;;9.44;65.55
34205;BME280;20471;49.680;20.074;2023-04-08T09:00:55;97524.59;;;9.33;65.56
34205;BME280;20471;49.680;20.074;2023-04-08T09:03:26;97532.41;;;9.29;65.38
34205;BME280;20471;49.680;20.074;2023-04-08T09:05:55;97531.84;;;9.20;64.71
34205;BME280;20471;49.680;20.074;2023-04-08T09:08:27;97534.05;;;9.16;65.15
34205;BME280;20471;49.680;20.074;2023-04-08T09:11:10;97534.91;;;9.23;65.30
34205;BME280;20471;49.680;20.074;2023-04-08T09:13:39;97537.45;;;9.25;64.97
34205;BME280;20471;49.680;20.074;2023-04-08T09:16:12;97540.41;;;9.22;64.32
34205;BME280;20471;49.680;20.074;2023-04-08T09:18:43;97538.87;;;9.21;64.79
34205;BME280;20471;49.680;20.074;2023-04-08T09:21:13;97540.52;;;9.24;64.13
34205;BME280;20471;49.680;20.074;2023-04-08T09:23:45;97541.98;;;9.22;64.50
34205;BME280;20471;49.680;20.074;2023-04-08T09:26:15;97544.52;;;9.23;64.29
34205;BME280;20471;49.680;20.074;2023-04-08T09:29:03;97547.11;;;9.21;63.96
34205;BME280;20471;49.680;20.074;2023-04-08T09:31:38;97548.02;;;9.17;63.64
34205;BME280;20471;49.680;20.074;2023-04-08T09:34:11;97549.08;;;9.13;63.76
34205;BME280;20471;49.680;20.074;2023-04-08T09:36:40;97549.91;;;9.14;63.70
34205;BME280;20471;49.680;20.074;2023-04-08T09:39:08;97549.06;;;9.20;63.49
34205;BME280;20471;49.680;20.074;2023-04-08T09:41:37;97550.64;;;9.27;63.21
34205;BME280;20471;49.680;20.074;2023-04-08T09:44:08;97547.80;;;9.34;63.12
34205;BME280;20471;49.680;20.074;2023-04-08T09:49:43;97546.52;;;9.64;62.75
34205;BME280;20471;49.680;20.074;2023-04-08T09:55:33;97547.34;;;9.84;62.04
34205;BME280;20471;49.680;20.074;2023-04-08T09:58:10;97545.88;;;9.96;61.89
34205;BME280;20471;49.680;20.074;2023-04-08T10:00:43;97539.13;;;10.03;61.39
34205;BME280;20471;49.680;20.074;2023-04-08T10:03:29;97539.50;;;10.19;61.98
34205;BME280;20471;49.680;20.074;2023-04-08T10:06:00;97540.83;;;10.41;61.64
34205;BME280;20471;49.680;20.074;2023-04-08T10:08:29;97546.02;;;10.51;61.78
34205;BME280;20471;49.680;20.074;2023-04-08T10:10:58;97545.27;;;10.63;61.80
34205;BME280;20471;49.680;20.074;2023-04-08T10:13:27;97545.55;;;10.73;61.26
34205;BME280;20471;49.680;20.074;2023-04-08T10:16:22;97547.21;;;10.62;60.80
34205;BME280;20471;49.680;20.074;2023-04-08T10:18:53;97547.14;;;10.48;60.98
34205;BME280;20471;49.680;20.074;2023-04-08T10:21:38;97546.68;;;10.39;60.79
34205;BME280;20471;49.680;20.074;2023-04-08T10:24:09;97548.41;;;10.32;60.56
34205;BME280;20471;49.680;20.074;2023-04-08T10:26:39;97552.61;;;10.26;60.59
34205;BME280;20471;49.680;20.074;2023-04-08T10:31:48;97548.71;;;10.37;60.86
34205;BME280;20471;49.680;20.074;2023-04-08T10:34:21;97547.13;;;10.32;60.97
34205;BME280;20471;49.680;20.074;2023-04-08T10:36:50;97551.77;;;10.26;60.80
34205;BME280;20471;49.680;20.074;2023-04-08T10:39:19;97553.02;;;10.15;61.10
34205;BME280;20471;49.680;20.074;2023-04-08T10:41:48;97555.05;;;10.12;61.23
34205;BME280;20471;49.680;20.074;2023-04-08T10:44:22;97556.16;;;10.10;61.45
34205;BME280;20471;49.680;20.074;2023-04-08T10:46:52;97554.66;;;10.13;61.42
34205;BME280;20471;49.680;20.074;2023-04-08T10:49:20;97555.98;;;10.02;61.06
34205;BME280;20471;49.680;20.074;2023-04-08T10:51:49;97553.60;;;9.99;61.76
34205;BME280;20471;49.680;20.074;2023-04-08T10:54:18;97554.53;;;10.01;61.81
34205;BME280;20471;49.680;20.074;2023-04-08T10:56:50;97559.77;;;10.06;61.87
34205;BME280;20471;49.680;20.074;2023-04-08T10:59:30;97556.33;;;10.10;61.42
34205;BME280;20471;49.680;20.074;2023-04-08T11:01:59;97558.76;;;10.02;61.63
34205;BME280;20471;49.680;20.074;2023-04-08T11:04:27;97560.19;;;9.95;61.43
34205;BME280;20471;49.680;20.074;2023-04-08T11:06:55;97565.29;;;9.81;61.30
34205;BME280;20471;49.680;20.074;2023-04-08T11:09:24;97558.78;;;9.70;61.69
34205;BME280;20471;49.680;20.074;2023-04-08T11:11:52;97557.31;;;9.65;61.76
34205;BME280;20471;49.680;20.074;2023-04-08T11:14:22;97554.92;;;9.58;61.59
34205;BME280;20471;49.680;20.074;2023-04-08T11:16:50;97562.36;;;9.52;61.95
34205;BME280;20471;49.680;20.074;2023-04-08T11:19:19;97558.51;;;9.53;62.41
34205;BME280;20471;49.680;20.074;2023-04-08T11:21:50;97553.10;;;9.59;62.64
34205;BME280;20471;49.680;20.074;2023-04-08T11:24:18;97553.80;;;9.70;62.32
34205;BME280;20471;49.680;20.074;2023-04-08T11:26:48;97557.88;;;9.85;62.32
34205;BME280;20471;49.680;20.074;2023-04-08T11:29:16;97556.25;;;9.96;62.01
34205;BME280;20471;49.680;20.074;2023-04-08T11:31:45;97554.71;;;9.96;61.51
34205;BME280;20471;49.680;20.074;2023-04-08T11:34:21;97555.90;;;9.92;61.94
34205;BME280;20471;49.680;20.074;2023-04-08T11:36:51;97550.27;;;10.01;61.78
34205;BME280;20471;49.680;20.074;2023-04-08T11:39:21;97549.93;;;10.08;61.57
34205;BME280;20471;49.680;20.074;2023-04-08T11:41:50;97549.36;;;10.15;61.42
34205;BME280;20471;49.680;20.074;2023-04-08T11:44:18;97552.67;;;10.16;61.01
34205;BME280;20471;49.680;20.074;2023-04-08T11:46:53;97548.05;;;10.06;60.22
34205;BME280;20471;49.680;20.074;2023-04-08T11:49:22;97552.14;;;9.81;60.67
34205;BME280;20471;49.680;20.074;2023-04-08T11:51:56;97551.63;;;9.76;61.19
34205;BME280;20471;49.680;20.074;2023-04-08T11:54:26;97551.40;;;9.70;60.89
34205;BME280;20471;49.680;20.074;2023-04-08T11:56:55;97553.74;;;9.66;61.07
34205;BME280;20471;49.680;20.074;2023-04-08T11:59:24;97556.39;;;9.61;60.97
34205;BME280;20471;49.680;20.074;2023-04-08T12:01:52;97549.27;;;9.54;60.78
34205;BME280;20471;49.680;20.074;2023-04-08T12:04:20;97551.83;;;9.44;60.66
34205;BME280;20471;49.680;20.074;2023-04-08T12:06:48;97555.92;;;9.33;60.88
34205;BME280;20471;49.680;20.074;2023-04-08T12:09:17;97553.85;;;9.29;60.93
34205;BME280;20471;49.680;20.074;2023-04-08T12:11:46;97554.95;;;9.25;60.95
34205;BME280;20471;49.680;20.074;2023-04-08T12:14:14;97554.91;;;9.14;61.20
34205;BME280;20471;49.680;20.074;2023-04-08T12:16:42;97554.00;;;9.07;61.52
34205;BME280;20471;49.680;20.074;2023-04-08T12:19:10;97556.20;;;8.93;61.56
34205;BME280;20471;49.680;20.074;2023-04-08T12:21:38;97557.00;;;8.83;61.82
34205;BME280;20471;49.680;20.074;2023-04-08T12:24:06;97564.39;;;8.78;62.07
34205;BME280;20471;49.680;20.074;2023-04-08T12:26:34;97560.57;;;8.73;61.98
34205;BME280;20471;49.680;20.074;2023-04-08T12:29:02;97563.29;;;8.64;62.04
34205;BME280;20471;49.680;20.074;2023-04-08T12:31:31;97566.17;;;8.59;62.28
34205;BME280;20471;49.680;20.074;2023-04-08T12:33:59;97565.36;;;8.54;62.52
34205;BME280;20471;49.680;20.074;2023-04-08T12:36:27;97569.35;;;8.52;62.61
34205;BME280;20471;49.680;20.074;2023-04-08T12:38:56;97570.61;;;8.49;62.45
34205;BME280;20471;49.680;20.074;2023-04-08T12:41:24;97571.58;;;8.45;62.46
34205;BME280;20471;49.680;20.074;2023-04-08T12:43:52;97573.23;;;8.40;62.46
34205;BME280;20471;49.680;20.074;2023-04-08T12:46:20;97570.90;;;8.32;62.62
34205;BME280;20471;49.680;20.074;2023-04-08T12:48:48;97571.48;;;8.26;62.79
34205;BME280;20471;49.680;20.074;2023-04-08T12:51:16;97571.30;;;8.25;62.98
34205;BME280;20471;49.680;20.074;2023-04-08T12:53:44;97568.36;;;8.24;63.09
34205;BME280;20471;49.680;20.074;2023-04-08T12:56:13;97569.02;;;8.24;63.29
34205;BME280;20471;49.680;20.074;2023-04-08T12:58:41;97573.95;;;8.24;63.33
34205;BME280;20471;49.680;20.074;2023-04-08T13:01:09;97575.92;;;8.24;63.48
34205;BME280;20471;49.680;20.074;2023-04-08T13:03:38;97574.61;;;8.23;63.39
34205;BME280;20471;49.680;20.074;2023-04-08T13:06:07;97575.05;;;8.08;63.38
34205;BME280;20471;49.680;20.074;2023-04-08T13:08:35;97578.36;;;8.02;63.79
34205;BME280;20471;49.680;20.074;2023-04-08T13:11:04;97575.46;;;8.05;64.10
34205;BME280;20471;49.680;20.074;2023-04-08T13:13:32;97577.98;;;8.09;64.21
34205;BME280;20471;49.680;20.074;2023-04-08T13:16:00;97575.09;;;8.14;64.41
34205;BME280;20471;49.680;20.074;2023-04-08T13:18:28;97573.04;;;8.19;64.74
34205;BME280;20471;49.680;20.074;2023-04-08T13:20:56;97568.59;;;8.25;64.78
34205;BME280;20471;49.680;20.074;2023-04-08T13:23:25;97569.32;;;8.28;64.76
34205;BME280;20471;49.680;20.074;2023-04-08T13:25:53;97568.22;;;8.37;64.82